^^
Datos históricos de la estación: Murcia-Puente Tocinos
Diario Informe para Abril 20, 2021 Unidades:  Ambas    Ingés   Métrico
Diario Semanal Mensual Anual
  Máxima: Mínima: Promedio:
Temperatura: 63.5 °F /  17.5 °C 60.6 °F /  15.9 °C 61.5 °F /  16.4 °C
Punto de rocio: 57.4 °F /  14.1 °C 56.5 °F /  13.6 °C 57.2 °F /  14 °C
Humedad: 89% 78% 86%
Velocidad viento: 11.2mph /  18km/h - 8.3mph /  13.3km/h
Racha viento: 18.4mph /  29.6km/h - -
Viento- - NNE
Presión: 29.9 in /  1011.8 hPa 29.8 in /  1009.9 hPa -
Precipitación: 0.06 in /  1.5 mm    
 
 
Tabla de datos para Abril 20, 2021
Hora Temperatura Punto de rocio Presión Viento Velocidad viento Racha viento Humedad Intensidad lluvia(por hora) Nubes
20:34 63.5 °F /  17.5 °C 56.5 °F /  13.6 °C 29.8in /  1009.9hPa NE 10.7mph /  17.2km/h 12.7mph /  20.4km/h 78% 0in /  0.0mm
20:39 63.3 °F /  17.4 °C 56.7 °F /  13.7 °C 29.8in /  1009.9hPa NNE 11.1mph /  17.8km/h 16.1mph /  25.9km/h 78.8% 0in /  0.0mm
20:44 63.1 °F /  17.3 °C 56.7 °F /  13.7 °C 29.8in /  1010.0hPa NNE 11.2mph /  18km/h 16mph /  25.7km/h 79.1% 0in /  0.0mm
20:49 63.1 °F /  17.3 °C 56.8 °F /  13.8 °C 29.8in /  1010.0hPa NE 9.6mph /  15.5km/h 15mph /  24.1km/h 80% 0in /  0.0mm
20:54 63 °F /  17.2 °C 56.8 °F /  13.8 °C 29.8in /  1010.0hPa NNE 8.5mph /  13.7km/h 15mph /  24.1km/h 80.3% 0in /  0.0mm
20:59 63 °F /  17.2 °C 57 °F /  13.9 °C 29.8in /  1010.0hPa NNE 8.6mph /  13.9km/h 17.3mph /  27.8km/h 81% 0in /  0.0mm
21:04 62.8 °F /  17.1 °C 57 °F /  13.9 °C 29.8in /  1010.0hPa NE 8.7mph /  14km/h 17mph /  27.4km/h 81.6% 0in /  0.0mm
21:09 62.6 °F /  17 °C 57 °F /  13.9 °C 29.8in /  1010.0hPa NE 8.9mph /  14.4km/h 16.1mph /  25.9km/h 82% 0in /  0.0mm
21:14 62.4 °F /  16.9 °C 57 °F /  13.9 °C 29.8in /  1010.2hPa NE 9.2mph /  14.8km/h 18.4mph /  29.6km/h 82.5% 0in /  0.0mm
21:19 62.2 °F /  16.8 °C 57.2 °F /  14 °C 29.8in /  1010.2hPa NE 10.3mph /  16.6km/h 18mph /  29km/h 83% 0in /  0.0mm
21:24 62.2 °F /  16.8 °C 57.2 °F /  14 °C 29.8in /  1010.2hPa NNE 10.7mph /  17.2km/h 17mph /  27.4km/h 83.6% 0in /  0.0mm
21:29 62.1 °F /  16.7 °C 57 °F /  13.9 °C 29.8in /  1010.4hPa NNE 9.3mph /  15km/h 16mph /  25.7km/h 83.5% 0in /  0.0mm
21:34 62.1 °F /  16.7 °C 57 °F /  13.9 °C 29.8in /  1010.4hPa NNE 8.7mph /  14km/h 15mph /  24.1km/h 83.8% 0in /  0.0mm
21:39 62.1 °F /  16.7 °C 57.2 °F /  14 °C 29.8in /  1010.4hPa NNE 8.3mph /  13.4km/h 13mph /  20.9km/h 84% 0in /  0.0mm
21:44 61.9 °F /  16.6 °C 57 °F /  13.9 °C 29.8in /  1010.5hPa NE 8.1mph /  13km/h 12.3mph /  19.8km/h 84% 0in /  0.0mm
21:49 61.5 °F /  16.4 °C 56.7 °F /  13.7 °C 29.8in /  1010.5hPa NNE 7.8mph /  12.5km/h 14mph /  22.5km/h 84% 0in /  0.0mm
21:54 61.5 °F /  16.4 °C 56.8 °F /  13.8 °C 29.8in /  1010.5hPa NNE 7.6mph /  12.2km/h 14mph /  22.5km/h 84.5% 0in /  0.0mm
21:59 61.3 °F /  16.3 °C 56.8 °F /  13.8 °C 29.8in /  1010.7hPa NNE 8.1mph /  13.1km/h 15mph /  24.1km/h 85% 0in /  0.0mm
22:04 61.3 °F /  16.3 °C 57 °F /  13.9 °C 29.8in /  1010.7hPa NNE 8.7mph /  14km/h 15mph /  24.1km/h 86% 0in /  0.0mm
22:09 61.2 °F /  16.2 °C 57.2 °F /  14 °C 29.8in /  1010.7hPa NNE 9.5mph /  15.3km/h 15.9mph /  25.6km/h 86.6% 0in /  0.0mm
22:14 61.2 °F /  16.2 °C 57.4 °F /  14.1 °C 29.9in /  1011.0hPa NNE 10mph /  16.1km/h 16.1mph /  25.9km/h 87% 0in /  0.0mm
22:19 61.2 °F /  16.2 °C 57.2 °F /  14 °C 29.9in /  1011.0hPa NNE 9.3mph /  14.9km/h 16mph /  25.7km/h 87% 0in /  0.0mm
22:24 61 °F /  16.1 °C 57 °F /  13.9 °C 29.9in /  1011.0hPa NNE 8.1mph /  13km/h 13.8mph /  22.2km/h 87% 0in /  0.0mm
22:29 61 °F /  16.1 °C 57.4 °F /  14.1 °C 29.9in /  1011.3hPa NNE 7.5mph /  12.1km/h 14mph /  22.5km/h 88% 0in /  0.0mm
22:34 61 °F /  16.1 °C 57.4 °F /  14.1 °C 29.9in /  1011.3hPa NNE 7.4mph /  11.9km/h 14mph /  22.5km/h 88% 0in /  0.0mm
22:39 61 °F /  16.1 °C 57.4 °F /  14.1 °C 29.9in /  1011.3hPa NNE 7.4mph /  11.9km/h 16.1mph /  25.9km/h 88% 0in /  0.0mm
22:44 60.8 °F /  16 °C 57.2 °F /  14 °C 29.9in /  1011.3hPa NNE 7.4mph /  11.9km/h 14mph /  22.5km/h 88% 0in /  0.0mm
22:49 60.8 °F /  16 °C 57.2 °F /  14 °C 29.9in /  1011.3hPa NE 8.1mph /  13km/h 14mph /  22.5km/h 88% 0in /  0.0mm
22:54 60.8 °F /  16 °C 57.2 °F /  14 °C 29.9in /  1011.3hPa NNE 8.5mph /  13.7km/h 14mph /  22.5km/h 88% 0in /  0.0mm
22:59 60.8 °F /  16 °C 57.2 °F /  14 °C 29.9in /  1011.5hPa NNE 7.8mph /  12.5km/h 13mph /  20.9km/h 88% 0in /  0.0mm
23:04 60.8 °F /  16 °C 57.2 °F /  14 °C 29.9in /  1011.5hPa NNE 7.4mph /  11.9km/h 12.7mph /  20.4km/h 88.1% 0in /  0.0mm
23:09 60.6 °F /  15.9 °C 57.4 °F /  14.1 °C 29.9in /  1011.5hPa NNE 7mph /  11.2km/h 13mph /  20.9km/h 89% 0in /  0.0mm
23:14 60.6 °F /  15.9 °C 57.4 °F /  14.1 °C 29.9in /  1011.7hPa NE 6.9mph /  11.1km/h 13mph /  20.9km/h 89% 0in /  0.0mm
23:19 60.6 °F /  15.9 °C 57.4 °F /  14.1 °C 29.9in /  1011.7hPa NNE 7.3mph /  11.7km/h 14mph /  22.5km/h 89% 0in /  0.0mm
23:24 60.6 °F /  15.9 °C 57.4 °F /  14.1 °C 29.9in /  1011.7hPa NNE 7.4mph /  11.9km/h 14mph /  22.5km/h 89% 0in /  0.0mm
23:29 60.6 °F /  15.9 °C 57.4 °F /  14.1 °C 29.9in /  1011.8hPa NNE 7mph /  11.3km/h 13mph /  20.9km/h 89% 0in /  0.0mm
23:34 60.6 °F /  15.9 °C 57.4 °F /  14.1 °C 29.9in /  1011.8hPa NNE 6.9mph /  11.1km/h 13mph /  20.9km/h 89% 0in /  0.0mm
23:39 60.6 °F /  15.9 °C 57.4 °F /  14.1 °C 29.9in /  1011.8hPa NNE 7.3mph /  11.7km/h 13mph /  20.9km/h 89% 0in /  0.0mm
23:44 60.6 °F /  15.9 °C 57.4 °F /  14.1 °C 29.9in /  1011.8hPa NNE 7.4mph /  11.9km/h 13mph /  20.9km/h 89% 0in /  0.0mm
23:49 60.6 °F /  15.9 °C 57.4 °F /  14.1 °C 29.9in /  1011.8hPa NNE 6.5mph /  10.5km/h 12.7mph /  20.4km/h 89% 0in /  0.0mm
23:54 60.6 °F /  15.9 °C 57.4 °F /  14.1 °C 29.9in /  1011.8hPa NE 5.9mph /  9.5km/h 12.7mph /  20.4km/h 89% 0in /  0.0mm
23:59 60.6 °F /  15.9 °C 57.4 °F /  14.1 °C 29.9in /  1011.8hPa NNE 6.2mph /  10km/h 11.5mph /  18.5km/h 89% 0in /  0.0mm
Murcia-Puente Tocinos, España
Compliments of Weather Underground - 1.5 mb

La estación de MeteoMurcia.com, publica sus datos en los siguientes proyectos:

Weather Underground PWS IMURCIAP2 Meteoclimatic www.awekas.at

W3Counter
Web Analytics